CheckWX is a tool to help pilots better visualize weather data.  It is not intended as a substitute for an official pre-flight weather briefing.

12:48:07 UTC

ETNH TAF
Hohn Airport
Germany
TAF ETNH 191021Z 1911/1923 30011KT 9999 NSW SCT040 SCT300 BY ETGL

Sep-19@
11:00 UTC

Sep-19 @ 11:00 UTC

Sep-19@
23:00 UTC

Sep-19 @ 23:00 UTC

TAF ETNH 191021Z 1911/1923 30011KT 9999 NSW SCT040 SCT300 BY ETGL
Wind
  • 300° at 11 KTS
Conditions
No significant weather
Cloud Levels
  • Scattered at 4,000' AGL
  • Scattered at 30,000' AGL